createdAt,value
2022-11-07T00:01:49.635Z,2.73
2022-11-07T00:04:16.879Z,2.70
2022-11-07T00:06:47.998Z,2.37
2022-11-07T00:09:15.367Z,2.80
2022-11-07T00:11:42.596Z,2.53
2022-11-07T00:14:15.881Z,2.50
2022-11-07T00:16:46.645Z,2.57
2022-11-07T00:19:18.510Z,2.80
2022-11-07T00:21:46.537Z,2.67
2022-11-07T00:24:17.694Z,2.40
2022-11-07T00:26:47.398Z,2.53
2022-11-07T00:29:20.130Z,2.77
2022-11-07T00:31:48.330Z,2.77
2022-11-07T00:34:17.154Z,2.50
2022-11-07T00:36:44.708Z,2.83
2022-11-07T00:39:12.221Z,2.70
2022-11-07T00:41:39.561Z,2.90
2022-11-07T00:44:08.433Z,2.20
2022-11-07T00:46:35.565Z,2.40
2022-11-07T00:49:02.885Z,2.57
2022-11-07T00:51:30.347Z,2.40
2022-11-07T00:53:57.718Z,2.53
2022-11-07T00:56:25.906Z,2.30
2022-11-07T00:58:58.501Z,2.47
2022-11-07T01:01:30.534Z,2.57
2022-11-07T01:04:17.199Z,2.30
2022-11-07T01:06:46.809Z,2.40
2022-11-07T01:09:22.605Z,2.70
2022-11-07T01:11:50.589Z,2.60
2022-11-07T01:14:21.514Z,2.40
2022-11-07T01:16:49.176Z,2.53
2022-11-07T01:19:24.078Z,2.17
2022-11-07T01:21:51.969Z,2.63
2022-11-07T01:24:33.906Z,2.57
2022-11-07T01:27:16.878Z,2.70
2022-11-07T01:30:01.810Z,2.20
2022-11-07T01:32:49.307Z,2.30
2022-11-07T01:35:34.722Z,2.30
2022-11-07T01:38:17.808Z,2.20
2022-11-07T01:41:03.979Z,2.30
2022-11-07T01:44:11.320Z,2.10
2022-11-07T01:46:51.301Z,2.40
2022-11-07T01:49:45.259Z,2.30
2022-11-07T01:52:28.307Z,2.23
2022-11-07T01:55:23.267Z,2.50
2022-11-07T01:58:14.449Z,2.63
2022-11-07T02:00:57.362Z,2.20
2022-11-07T02:03:36.997Z,2.20
2022-11-07T02:06:50.877Z,2.30
2022-11-07T02:09:34.409Z,2.23
2022-11-07T02:12:13.853Z,2.57
2022-11-07T02:14:55.022Z,2.63
2022-11-07T02:17:37.997Z,2.13
2022-11-07T02:20:20.620Z,2.37
2022-11-07T02:23:20.632Z,2.63
2022-11-07T02:26:05.164Z,2.30
2022-11-07T02:28:52.629Z,2.30
2022-11-07T02:31:36.884Z,2.30
2022-11-07T02:34:20.340Z,2.30
2022-11-07T02:36:47.789Z,2.10
2022-11-07T02:39:14.882Z,2.83
2022-11-07T02:41:42.595Z,2.37
2022-11-07T02:44:13.784Z,2.47
2022-11-07T02:46:41.252Z,2.77
2022-11-07T02:49:08.526Z,2.30
2022-11-07T02:51:35.574Z,2.80
2022-11-07T02:54:02.659Z,2.50
2022-11-07T02:56:29.915Z,2.43
2022-11-07T02:58:57.168Z,2.80
2022-11-07T03:01:25.319Z,2.43
2022-11-07T03:03:52.942Z,3.13
2022-11-07T03:06:25.293Z,2.53
2022-11-07T03:08:52.665Z,2.63
2022-11-07T03:11:20.196Z,2.63
2022-11-07T03:13:50.656Z,2.80
2022-11-07T03:16:20.903Z,2.27
2022-11-07T03:18:48.260Z,2.33
2022-11-07T03:21:15.481Z,2.40
2022-11-07T03:23:54.383Z,2.27
2022-11-07T03:26:37.594Z,2.50
2022-11-07T03:29:18.007Z,2.27
2022-11-07T03:31:45.957Z,2.20
2022-11-07T03:34:13.099Z,2.07
2022-11-07T03:36:40.438Z,2.50
2022-11-07T03:39:07.957Z,2.30
2022-11-07T03:41:35.197Z,2.43
2022-11-07T03:44:02.298Z,2.57
2022-11-07T03:46:29.489Z,2.70
2022-11-07T03:48:56.624Z,2.53
2022-11-07T03:51:23.773Z,2.70
2022-11-07T03:53:51.031Z,2.50
2022-11-07T03:56:36.892Z,2.60
2022-11-07T03:59:04.168Z,2.20
2022-11-07T04:01:31.639Z,2.50
2022-11-07T04:04:01.568Z,2.77
2022-11-07T04:06:28.944Z,2.40
2022-11-07T04:08:56.080Z,2.50
2022-11-07T04:11:41.741Z,2.57
2022-11-07T04:14:27.479Z,2.60
2022-11-07T04:17:13.252Z,2.43
2022-11-07T04:19:40.591Z,2.53
2022-11-07T04:22:07.919Z,2.07
2022-11-07T04:24:35.257Z,2.30
2022-11-07T04:27:21.356Z,2.40
2022-11-07T04:29:48.526Z,2.67
2022-11-07T04:32:18.189Z,2.40
2022-11-07T04:34:45.308Z,2.20
2022-11-07T04:37:12.536Z,2.57
2022-11-07T04:39:39.679Z,2.63
2022-11-07T04:42:06.875Z,2.83
2022-11-07T04:44:34.474Z,2.50
2022-11-07T04:47:01.820Z,2.57
2022-11-07T04:49:29.247Z,2.67
2022-11-07T04:51:59.839Z,2.47
2022-11-07T04:54:26.985Z,3.33
2022-11-07T04:56:54.302Z,2.63
2022-11-07T04:59:21.509Z,2.70
2022-11-07T05:01:48.851Z,2.33
2022-11-07T05:04:16.096Z,2.73
2022-11-07T05:06:43.541Z,2.23
2022-11-07T05:09:18.735Z,2.57
2022-11-07T05:11:47.826Z,2.60
2022-11-07T05:14:15.140Z,2.50
2022-11-07T05:16:43.771Z,2.77
2022-11-07T05:19:18.090Z,2.50
2022-11-07T05:21:45.901Z,2.47
2022-11-07T05:24:14.239Z,2.70
2022-11-07T05:26:41.498Z,2.60
2022-11-07T05:29:10.644Z,2.23
2022-11-07T05:31:37.825Z,2.50
2022-11-07T05:34:04.944Z,2.43
2022-11-07T05:36:32.235Z,2.90
2022-11-07T05:38:59.437Z,2.97
2022-11-07T05:41:26.634Z,2.37
2022-11-07T05:43:53.889Z,2.50
2022-11-07T05:46:39.735Z,2.80
2022-11-07T05:49:07.023Z,2.60
2022-11-07T05:51:34.185Z,2.40
2022-11-07T05:54:01.352Z,2.40
2022-11-07T05:56:28.592Z,2.60
2022-11-07T05:58:56.039Z,2.43
2022-11-07T06:01:23.205Z,2.23
2022-11-07T06:03:50.755Z,2.27
2022-11-07T06:06:17.908Z,2.30
2022-11-07T06:08:45.377Z,2.57
2022-11-07T06:11:12.514Z,2.60
2022-11-07T06:13:39.783Z,2.53
2022-11-07T06:16:07.849Z,2.40
2022-11-07T06:18:41.348Z,2.63
2022-11-07T06:21:09.104Z,2.50
2022-11-07T06:23:36.203Z,2.50
2022-11-07T06:26:03.395Z,2.43
2022-11-07T06:28:30.772Z,2.60
2022-11-07T06:31:05.762Z,2.27
2022-11-07T06:33:33.251Z,2.30
2022-11-07T06:36:22.294Z,2.23
2022-11-07T06:38:54.011Z,2.40
2022-11-07T06:41:21.394Z,2.43
2022-11-07T06:43:51.845Z,2.27
2022-11-07T06:46:22.385Z,2.40
2022-11-07T06:48:49.842Z,2.40
2022-11-07T06:51:17.598Z,2.30
2022-11-07T06:53:44.818Z,2.20
2022-11-07T06:56:16.202Z,2.60
2022-11-07T06:58:43.364Z,2.90
2022-11-07T07:01:15.182Z,2.53
2022-11-07T07:03:43.966Z,2.30
2022-11-07T07:06:23.310Z,2.50
2022-11-07T07:08:50.772Z,2.30
2022-11-07T07:11:18.487Z,2.60
2022-11-07T07:13:45.667Z,2.50
2022-11-07T07:16:15.405Z,2.63
2022-11-07T07:18:49.250Z,2.67
2022-11-07T07:21:16.473Z,2.50
2022-11-07T07:23:43.830Z,2.40
2022-11-07T07:26:15.900Z,2.30
2022-11-07T07:28:44.499Z,2.10
2022-11-07T07:35:22.209Z,2.13
2022-11-07T07:37:53.243Z,2.50
2022-11-07T07:40:23.200Z,2.50
2022-11-07T07:42:50.943Z,2.50
2022-11-07T07:45:18.201Z,2.07
2022-11-07T07:47:45.456Z,2.00
2022-11-07T07:50:14.027Z,2.60
2022-11-07T07:52:43.135Z,2.30
2022-11-07T07:55:11.745Z,1.83
2022-11-07T07:57:43.838Z,2.30
2022-11-07T08:00:13.825Z,2.33
2022-11-07T08:02:44.440Z,2.23
2022-11-07T08:05:14.489Z,2.27
2022-11-07T08:07:51.351Z,2.60
2022-11-07T08:10:40.832Z,2.37
2022-11-07T08:13:07.772Z,2.00
2022-11-07T08:15:35.030Z,2.17
2022-11-07T08:18:04.829Z,2.40
2022-11-07T08:20:33.267Z,2.30
2022-11-07T08:23:09.837Z,2.50
2022-11-07T08:25:39.293Z,2.63
2022-11-07T08:28:09.386Z,2.20
2022-11-07T08:30:36.610Z,2.20
2022-11-07T08:33:04.081Z,2.40
2022-11-07T08:35:31.965Z,2.60
2022-11-07T08:37:59.934Z,2.60
2022-11-07T08:40:28.215Z,2.50
2022-11-07T08:43:00.726Z,2.50
2022-11-07T08:45:28.292Z,2.40
2022-11-07T08:47:59.888Z,2.47
2022-11-07T08:50:32.804Z,1.93
2022-11-07T08:53:14.791Z,2.03
2022-11-07T08:55:42.899Z,1.93
2022-11-07T08:58:11.636Z,2.50
2022-11-07T09:00:43.164Z,2.27
2022-11-07T09:05:59.241Z,2.30
2022-11-07T09:08:26.443Z,2.17
2022-11-07T09:10:53.853Z,2.27
2022-11-07T09:13:22.067Z,2.20
2022-11-07T09:15:51.338Z,2.27
2022-11-07T09:18:22.550Z,2.40
2022-11-07T09:20:49.841Z,2.30
2022-11-07T09:23:19.762Z,2.50
2022-11-07T09:25:47.726Z,2.40
2022-11-07T09:28:16.221Z,2.30
2022-11-07T09:30:44.937Z,2.50
2022-11-07T09:33:13.480Z,2.30
2022-11-07T09:35:41.058Z,2.40
2022-11-07T09:38:08.420Z,1.97
2022-11-07T09:40:51.448Z,2.20
2022-11-07T09:43:42.381Z,2.70
2022-11-07T09:46:55.949Z,2.10
2022-11-07T09:49:47.762Z,2.33
2022-11-07T09:52:24.790Z,2.40
2022-11-07T09:55:25.192Z,2.50
2022-11-07T09:58:00.317Z,2.07
2022-11-07T10:00:32.094Z,2.20
2022-11-07T10:03:04.536Z,2.33
2022-11-07T10:05:44.942Z,2.53
2022-11-07T10:08:33.511Z,2.20
2022-11-07T10:11:09.395Z,2.37
2022-11-07T10:13:54.786Z,2.43
2022-11-07T10:17:08.657Z,2.27
2022-11-07T10:19:57.966Z,2.37
2022-11-07T10:22:27.837Z,2.17
2022-11-07T10:25:33.623Z,2.70
2022-11-07T10:28:17.508Z,2.73
2022-11-07T10:31:07.734Z,2.40
2022-11-07T10:34:07.587Z,2.20
2022-11-07T10:36:34.852Z,2.20
2022-11-07T10:39:05.675Z,2.67
2022-11-07T10:41:34.512Z,2.37
2022-11-07T10:44:13.690Z,2.60
2022-11-07T10:46:50.064Z,2.37
2022-11-07T10:49:33.193Z,2.57
2022-11-07T10:52:17.854Z,2.40
2022-11-07T10:54:47.552Z,2.40
2022-11-07T10:57:23.608Z,2.57
2022-11-07T10:59:53.497Z,2.40
2022-11-07T11:02:25.844Z,2.57
2022-11-07T11:05:03.890Z,2.40
2022-11-07T11:07:42.585Z,2.30
2022-11-07T11:10:21.241Z,3.23
2022-11-07T11:12:51.391Z,2.30
2022-11-07T11:15:24.957Z,2.10
2022-11-07T11:18:12.706Z,2.47
2022-11-07T11:21:03.201Z,2.40
2022-11-07T11:23:41.588Z,2.57
2022-11-07T11:26:30.542Z,2.47
2022-11-07T11:29:09.329Z,2.50
2022-11-07T11:31:55.790Z,2.37
2022-11-07T11:34:36.010Z,2.60
2022-11-07T11:37:18.917Z,2.43
2022-11-07T11:40:02.602Z,2.80
2022-11-07T11:42:50.287Z,2.50
2022-11-07T11:45:27.102Z,2.60
2022-11-07T11:48:27.085Z,2.23
2022-11-07T11:51:15.140Z,2.30
2022-11-07T11:53:42.518Z,2.17
2022-11-07T11:56:50.938Z,2.43
2022-11-07T11:59:26.695Z,2.23
2022-11-07T12:02:15.141Z,2.70
2022-11-07T12:06:03.781Z,2.10
2022-11-07T12:09:04.241Z,2.20
2022-11-07T12:11:50.885Z,2.50
2022-11-07T12:14:32.865Z,2.00
2022-11-07T12:17:20.736Z,2.13
2022-11-07T12:20:06.869Z,2.47
2022-11-07T12:23:26.020Z,2.63
2022-11-07T12:26:05.934Z,2.50
2022-11-07T12:29:21.953Z,2.30
2022-11-07T12:32:28.287Z,3.10
2022-11-07T12:35:23.432Z,2.50
2022-11-07T12:38:19.508Z,2.17
2022-11-07T12:41:19.399Z,3.20
2022-11-07T12:44:05.128Z,2.77
2022-11-07T12:46:59.675Z,2.70
2022-11-07T12:50:02.251Z,2.80
2022-11-07T12:53:31.383Z,2.87
2022-11-07T12:56:13.278Z,3.10
2022-11-07T12:58:48.667Z,2.97
2022-11-07T13:01:24.499Z,2.40
2022-11-07T13:04:23.306Z,2.37
2022-11-07T13:07:23.425Z,2.30
2022-11-07T13:10:25.110Z,1.93
2022-11-07T13:13:25.132Z,2.07
2022-11-07T13:16:20.091Z,2.10
2022-11-07T13:18:47.368Z,2.17
2022-11-07T13:21:14.453Z,2.33
2022-11-07T13:23:41.933Z,2.30
2022-11-07T13:26:44.553Z,2.00
2022-11-07T13:29:02.509Z,1.70
2022-11-07T13:31:42.957Z,1.90
2022-11-07T13:34:30.729Z,1.67
2022-11-07T13:37:05.670Z,2.03
2022-11-07T13:39:34.555Z,2.10
2022-11-07T13:42:03.087Z,2.03
2022-11-07T13:44:38.245Z,1.80
2022-11-07T13:47:17.654Z,1.73
2022-11-07T13:49:49.471Z,1.93
2022-11-07T13:52:40.470Z,2.00
2022-11-07T13:55:20.659Z,1.83
2022-11-07T13:57:58.135Z,2.10
2022-11-07T14:00:26.176Z,1.80
2022-11-07T14:02:59.400Z,1.90
2022-11-07T14:05:35.174Z,1.90
2022-11-07T14:08:31.412Z,1.90
2022-11-07T14:10:59.976Z,1.67
2022-11-07T14:13:41.256Z,2.00
2022-11-07T14:16:22.357Z,1.87
2022-11-07T14:19:01.708Z,1.90
2022-11-07T14:21:35.278Z,2.30
2022-11-07T14:24:03.752Z,2.20
2022-11-07T14:26:35.489Z,2.40
2022-11-07T14:29:04.251Z,1.97
2022-11-07T14:31:35.519Z,2.20
2022-11-07T14:34:25.358Z,1.80
2022-11-07T14:37:09.499Z,2.17
2022-11-07T14:39:37.026Z,2.10
2022-11-07T14:42:04.984Z,2.23
2022-11-07T14:44:55.708Z,2.73
2022-11-07T14:47:28.627Z,2.23
2022-11-07T14:49:57.959Z,1.83
2022-11-07T14:53:04.003Z,1.97
2022-11-07T14:55:34.346Z,2.20
2022-11-07T14:58:12.263Z,2.07
2022-11-07T15:00:52.499Z,2.27
2022-11-07T15:03:23.638Z,2.10
2022-11-07T15:05:50.966Z,2.07
2022-11-07T15:08:37.404Z,1.67
2022-11-07T15:11:29.614Z,1.77
2022-11-07T15:13:59.642Z,2.03
2022-11-07T15:16:55.111Z,2.00
2022-11-07T15:19:30.194Z,1.67
2022-11-07T15:22:02.144Z,2.23
2022-11-07T15:24:45.627Z,2.90
2022-11-07T15:27:37.089Z,1.90
2022-11-07T15:30:07.227Z,2.07
2022-11-07T15:32:42.811Z,2.83
2022-11-07T15:38:06.887Z,2.33
2022-11-07T15:40:34.251Z,2.00
2022-11-07T15:43:01.581Z,2.17
2022-11-07T15:45:30.657Z,2.00
2022-11-07T15:47:58.214Z,1.70
2022-11-07T15:50:26.110Z,2.13
2022-11-07T15:52:54.769Z,2.27
2022-11-07T15:55:24.175Z,1.90
2022-11-07T15:57:54.412Z,2.07
2022-11-07T16:00:26.111Z,2.13
2022-11-07T16:02:54.007Z,1.90
2022-11-07T16:05:21.433Z,1.97
2022-11-07T16:07:48.686Z,1.87
2022-11-07T16:10:30.224Z,1.67
2022-11-07T16:13:03.893Z,2.13
2022-11-07T16:15:33.971Z,2.27
2022-11-07T16:18:01.213Z,2.30
2022-11-07T16:20:30.507Z,2.60
2022-11-07T16:22:57.717Z,2.07
2022-11-07T16:25:25.967Z,2.00
2022-11-07T16:28:00.557Z,1.93
2022-11-07T16:30:28.426Z,2.20
2022-11-07T16:32:56.488Z,2.13
2022-11-07T16:35:24.111Z,2.03
2022-11-07T16:37:51.577Z,2.00
2022-11-07T16:40:20.322Z,1.97
2022-11-07T16:42:50.280Z,2.07
2022-11-07T16:45:22.533Z,2.37
2022-11-07T16:47:49.822Z,2.10
2022-11-07T16:50:18.061Z,2.10
2022-11-07T16:52:48.368Z,2.00
2022-11-07T16:55:18.608Z,1.87
2022-11-07T16:57:47.028Z,17.63
2022-11-07T17:00:23.347Z,88.10
2022-11-07T17:02:51.353Z,19.67
2022-11-07T17:05:18.967Z,7.67
2022-11-07T17:07:46.323Z,467.40
2022-11-07T17:10:18.998Z,285.33
2022-11-07T17:12:46.251Z,461.73
2022-11-07T17:15:13.826Z,322.47
2022-11-07T17:17:41.334Z,102.40
2022-11-07T17:20:49.096Z,40.13
2022-11-07T17:23:09.179Z,13.83
2022-11-07T17:25:38.721Z,6.60
2022-11-07T17:28:07.426Z,13.87
2022-11-07T17:30:35.093Z,7.67
2022-11-07T17:33:03.699Z,35.20
2022-11-07T17:35:33.452Z,31.60
2022-11-07T17:38:01.292Z,28.83
2022-11-07T17:40:31.812Z,46.77
2022-11-07T17:43:02.917Z,21.07
2022-11-07T17:45:30.271Z,26.63
2022-11-07T17:47:57.601Z,22.50
2022-11-07T17:50:25.001Z,45.83
2022-11-07T17:52:52.651Z,36.37
2022-11-07T17:55:21.402Z,67.53
2022-11-07T17:57:48.653Z,58.50
2022-11-07T18:00:23.777Z,38.80
2022-11-07T18:02:52.991Z,29.33
2022-11-07T18:05:25.526Z,15.67
2022-11-07T18:07:54.855Z,12.07
2022-11-07T18:10:22.303Z,19.13
2022-11-07T18:12:49.555Z,8.73
2022-11-07T18:15:16.907Z,9.17
2022-11-07T18:17:47.146Z,6.00
2022-11-07T18:20:14.388Z,4.10
2022-11-07T18:22:41.601Z,4.13
2022-11-07T18:25:28.663Z,3.60
2022-11-07T18:27:55.760Z,3.37
2022-11-07T18:30:23.195Z,3.03
2022-11-07T18:32:50.480Z,3.00
2022-11-07T18:35:17.838Z,3.30
2022-11-07T18:37:45.240Z,3.17
2022-11-07T18:40:13.360Z,4.80
2022-11-07T18:42:59.447Z,4.73
2022-11-07T18:45:26.570Z,11.10
2022-11-07T18:47:56.981Z,7.77
2022-11-07T18:50:24.161Z,5.23
2022-11-07T18:52:51.579Z,10.00
2022-11-07T18:55:20.999Z,15.20
2022-11-07T18:57:51.402Z,55.10
2022-11-07T19:00:18.877Z,58.03
2022-11-07T19:02:46.081Z,39.07
2022-11-07T19:05:14.272Z,43.37
2022-11-07T19:07:45.097Z,73.37
2022-11-07T19:10:14.204Z,53.33
2022-11-07T19:12:42.382Z,77.37
2022-11-07T19:15:11.146Z,35.87
2022-11-07T19:17:38.494Z,16.97
2022-11-07T19:20:06.849Z,9.80
2022-11-07T19:22:34.220Z,3.80
2022-11-07T19:25:01.648Z,3.10
2022-11-07T19:27:30.061Z,2.87
2022-11-07T19:29:57.685Z,2.40
2022-11-07T19:32:24.989Z,2.53
2022-11-07T19:34:52.254Z,3.00
2022-11-07T19:37:19.464Z,2.67
2022-11-07T19:39:46.769Z,2.70
2022-11-07T19:42:14.025Z,2.57
2022-11-07T19:44:47.641Z,2.60
2022-11-07T19:47:17.799Z,2.37
2022-11-07T19:49:45.204Z,3.10
2022-11-07T19:52:13.241Z,2.70
2022-11-07T19:54:42.442Z,2.70
2022-11-07T19:57:09.652Z,2.57
2022-11-07T19:59:37.088Z,2.53
2022-11-07T20:02:31.114Z,2.10
2022-11-07T20:04:51.779Z,2.40
2022-11-07T20:07:19.430Z,2.53
2022-11-07T20:09:46.767Z,2.30
2022-11-07T20:12:14.132Z,2.30
2022-11-07T20:14:41.475Z,2.40
2022-11-07T20:17:08.814Z,2.73
2022-11-07T20:19:38.864Z,2.60
2022-11-07T20:22:49.346Z,3.00
2022-11-07T20:26:08.755Z,3.00
2022-11-07T20:29:10.836Z,2.50
2022-11-07T20:32:46.708Z,2.80
2022-11-07T20:38:45.049Z,2.83
2022-11-07T20:41:14.178Z,2.43
2022-11-07T20:43:43.844Z,2.73
2022-11-07T20:46:15.415Z,2.50
2022-11-07T20:48:43.828Z,3.13
2022-11-07T20:51:18.039Z,2.60
2022-11-07T20:53:50.091Z,2.50
2022-11-07T20:56:20.831Z,2.43
2022-11-07T20:58:51.918Z,2.50
2022-11-07T21:01:24.051Z,2.47
2022-11-07T21:03:52.010Z,2.73
2022-11-07T21:06:23.688Z,2.40
2022-11-07T21:08:50.858Z,2.60
2022-11-07T21:11:18.084Z,2.90
2022-11-07T21:13:52.355Z,2.87
2022-11-07T21:16:22.204Z,2.53
2022-11-07T21:18:51.016Z,2.60
2022-11-07T21:21:22.623Z,2.70
2022-11-07T21:23:51.840Z,2.37
2022-11-07T21:26:24.006Z,2.20
2022-11-07T21:28:51.197Z,2.60
2022-11-07T21:31:24.509Z,2.50
2022-11-07T21:33:52.634Z,2.43
2022-11-07T21:36:25.482Z,2.47
2022-11-07T21:38:56.664Z,2.43
2022-11-07T21:41:25.952Z,2.30
2022-11-07T21:43:53.318Z,2.43
2022-11-07T21:46:30.814Z,2.50
2022-11-07T21:48:59.353Z,2.20
2022-11-07T21:51:32.245Z,2.13
2022-11-07T21:54:00.953Z,2.10
2022-11-07T21:56:34.960Z,2.33
2022-11-07T21:59:06.307Z,2.30
2022-11-07T22:01:54.993Z,2.50
2022-11-07T22:04:22.280Z,2.50
2022-11-07T22:06:49.552Z,2.50
2022-11-07T22:09:20.815Z,2.07
2022-11-07T22:11:49.861Z,2.03
2022-11-07T22:14:22.834Z,2.30
2022-11-07T22:16:51.322Z,2.10
2022-11-07T22:19:19.283Z,2.17
2022-11-07T22:21:46.555Z,2.27
2022-11-07T22:24:13.786Z,2.30
2022-11-07T22:26:40.989Z,2.33
2022-11-07T22:29:08.188Z,2.47
2022-11-07T22:31:36.416Z,2.33
2022-11-07T22:34:03.628Z,2.30
2022-11-07T22:36:30.984Z,2.60
2022-11-07T22:38:58.849Z,2.53
2022-11-07T22:41:28.153Z,2.63
2022-11-07T22:43:57.155Z,2.57
2022-11-07T22:46:30.648Z,3.30
2022-11-07T22:48:59.865Z,2.50
2022-11-07T22:51:32.146Z,2.40
2022-11-07T22:54:02.416Z,2.20
2022-11-07T22:56:31.751Z,2.40
2022-11-07T22:58:59.956Z,2.47
2022-11-07T23:01:31.896Z,2.57
2022-11-07T23:04:00.006Z,2.20
2022-11-07T23:06:29.511Z,2.43
2022-11-07T23:09:01.088Z,2.13
2022-11-07T23:11:49.018Z,2.17
2022-11-07T23:14:20.578Z,2.30
2022-11-07T23:16:51.288Z,2.30
2022-11-07T23:19:23.080Z,2.50
2022-11-07T23:21:52.482Z,2.43
2022-11-07T23:24:20.911Z,2.20
2022-11-07T23:26:48.735Z,2.40
2022-11-07T23:29:23.246Z,2.40
2022-11-07T23:31:52.418Z,2.30
2022-11-07T23:34:22.118Z,2.40
2022-11-07T23:36:53.481Z,2.10
2022-11-07T23:39:23.040Z,2.10
2022-11-07T23:41:50.306Z,2.83
2022-11-07T23:44:17.908Z,2.70
2022-11-07T23:47:04.218Z,2.30
2022-11-07T23:49:52.994Z,2.43
2022-11-07T23:52:20.287Z,2.30
2022-11-07T23:55:07.316Z,2.40
2022-11-07T23:57:56.726Z,2.17
